sensor_id;sensor_type;location;lat;lon;timestamp;temperature;humidity
23723;DHT22;12042;52.136;5.584;2022-10-31T06:21:30;10.50;99.90
23723;DHT22;12042;52.136;5.584;2022-10-31T06:23:56;10.50;99.90
23723;DHT22;12042;52.136;5.584;2022-10-31T06:26:21;10.60;99.90
23723;DHT22;12042;52.136;5.584;2022-10-31T06:28:47;10.60;99.90
23723;DHT22;12042;52.136;5.584;2022-10-31T06:31:12;10.50;99.90
23723;DHT22;12042;52.136;5.584;2022-10-31T06:33:41;10.40;99.90
23723;DHT22;12042;52.136;5.584;2022-10-31T06:36:08;10.50;99.90
23723;DHT22;12042;52.136;5.584;2022-10-31T06:38:34;10.50;99.90
23723;DHT22;12042;52.136;5.584;2022-10-31T06:41:03;10.50;99.90
23723;DHT22;12042;52.136;5.584;2022-10-31T06:43:30;10.60;99.90
23723;DHT22;12042;52.136;5.584;2022-10-31T06:45:55;10.70;99.90
23723;DHT22;12042;52.136;5.584;2022-10-31T06:48:21;10.70;99.90
23723;DHT22;12042;52.136;5.584;2022-10-31T06:50:46;10.80;99.90
23723;DHT22;12042;52.136;5.584;2022-10-31T06:53:12;11.00;99.90
23723;DHT22;12042;52.136;5.584;2022-10-31T06:55:40;11.10;99.90
23723;DHT22;12042;52.136;5.584;2022-10-31T06:58:06;11.10;99.90
23723;DHT22;12042;52.136;5.584;2022-10-31T07:00:32;10.90;99.90
23723;DHT22;12042;52.136;5.584;2022-10-31T07:03:00;10.60;99.90
23723;DHT22;12042;52.136;5.584;2022-10-31T07:05:26;10.50;99.90
23723;DHT22;12042;52.136;5.584;2022-10-31T07:07:54;10.40;99.90
23723;DHT22;12042;52.136;5.584;2022-10-31T07:10:20;10.40;99.90
23723;DHT22;12042;52.136;5.584;2022-10-31T07:12:45;10.40;99.90
23723;DHT22;12042;52.136;5.584;2022-10-31T07:15:11;10.50;99.90
23723;DHT22;12042;52.136;5.584;2022-10-31T07:17:36;10.60;99.90
23723;DHT22;12042;52.136;5.584;2022-10-31T07:20:02;10.60;99.90
23723;DHT22;12042;52.136;5.584;2022-10-31T07:22:35;10.60;99.90
23723;DHT22;12042;52.136;5.584;2022-10-31T07:25:01;10.60;99.90
23723;DHT22;12042;52.136;5.584;2022-10-31T07:27:27;10.60;99.90
23723;DHT22;12042;52.136;5.584;2022-10-31T07:29:52;10.60;99.90
23723;DHT22;12042;52.136;5.584;2022-10-31T07:32:18;10.50;99.90
23723;DHT22;12042;52.136;5.584;2022-10-31T07:34:43;10.50;99.90
23723;DHT22;12042;52.136;5.584;2022-10-31T07:37:09;10.50;99.90
23723;DHT22;12042;52.136;5.584;2022-10-31T07:39:35;10.50;99.90
23723;DHT22;12042;52.136;5.584;2022-10-31T07:42:00;10.50;99.90
23723;DHT22;12042;52.136;5.584;2022-10-31T07:44:26;10.60;99.90
23723;DHT22;12042;52.136;5.584;2022-10-31T07:46:51;10.80;99.90
23723;DHT22;12042;52.136;5.584;2022-10-31T07:49:17;10.90;99.90
23723;DHT22;12042;52.136;5.584;2022-10-31T07:51:42;11.00;99.90
23723;DHT22;12042;52.136;5.584;2022-10-31T07:54:08;11.10;99.90
23723;DHT22;12042;52.136;5.584;2022-10-31T07:56:34;11.10;99.90
23723;DHT22;12042;52.136;5.584;2022-10-31T07:59:02;11.10;99.90
23723;DHT22;12042;52.136;5.584;2022-10-31T08:01:27;11.20;99.90
23723;DHT22;12042;52.136;5.584;2022-10-31T08:03:53;11.20;99.90
23723;DHT22;12042;52.136;5.584;2022-10-31T08:06:18;11.30;99.90
23723;DHT22;12042;52.136;5.584;2022-10-31T08:08:46;11.40;99.90
23723;DHT22;12042;52.136;5.584;2022-10-31T08:11:11;11.40;99.90
23723;DHT22;12042;52.136;5.584;2022-10-31T08:13:37;11.40;99.90
23723;DHT22;12042;52.136;5.584;2022-10-31T08:16:03;11.40;99.90
23723;DHT22;12042;52.136;5.584;2022-10-31T08:18:30;11.40;99.90
23723;DHT22;12042;52.136;5.584;2022-10-31T08:20:55;11.50;99.90
23723;DHT22;12042;52.136;5.584;2022-10-31T08:23:21;11.50;99.90
23723;DHT22;12042;52.136;5.584;2022-10-31T08:25:46;11.60;99.90
23723;DHT22;12042;52.136;5.584;2022-10-31T08:28:13;11.60;99.90
23723;DHT22;12042;52.136;5.584;2022-10-31T08:30:40;11.70;99.90
23723;DHT22;12042;52.136;5.584;2022-10-31T08:33:10;11.80;99.90
23723;DHT22;12042;52.136;5.584;2022-10-31T08:35:35;11.90;99.90
23723;DHT22;12042;52.136;5.584;2022-10-31T08:38:02;12.00;99.90
23723;DHT22;12042;52.136;5.584;2022-10-31T08:40:29;12.10;99.90
23723;DHT22;12042;52.136;5.584;2022-10-31T08:43:19;12.30;99.90
23723;DHT22;12042;52.136;5.584;2022-10-31T08:45:48;12.40;99.90
23723;DHT22;12042;52.136;5.584;2022-10-31T08:48:16;12.50;99.90
23723;DHT22;12042;52.136;5.584;2022-10-31T08:50:43;12.60;99.90
23723;DHT22;12042;52.136;5.584;2022-10-31T08:53:18;12.70;99.90
23723;DHT22;12042;52.136;5.584;2022-10-31T08:55:45;12.80;99.90
23723;DHT22;12042;52.136;5.584;2022-10-31T08:58:13;12.90;99.90
23723;DHT22;12042;52.136;5.584;2022-10-31T09:00:40;13.00;99.90
23723;DHT22;12042;52.136;5.584;2022-10-31T09:03:14;13.10;99.90
23723;DHT22;12042;52.136;5.584;2022-10-31T09:05:40;13.30;99.90
23723;DHT22;12042;52.136;5.584;2022-10-31T09:08:07;13.30;99.90
23723;DHT22;12042;52.136;5.584;2022-10-31T09:10:34;13.40;99.90
23723;DHT22;12042;52.136;5.584;2022-10-31T09:13:20;13.40;99.90
23723;DHT22;12042;52.136;5.584;2022-10-31T09:15:47;13.50;99.90
23723;DHT22;12042;52.136;5.584;2022-10-31T09:18:15;13.60;99.90
23723;DHT22;12042;52.136;5.584;2022-10-31T09:20:42;13.70;99.90
23723;DHT22;12042;52.136;5.584;2022-10-31T09:23:12;13.80;99.90
23723;DHT22;12042;52.136;5.584;2022-10-31T09:25:39;13.90;99.90
23723;DHT22;12042;52.136;5.584;2022-10-31T09:28:06;13.90;99.90
23723;DHT22;12042;52.136;5.584;2022-10-31T09:30:34;14.00;99.90
23723;DHT22;12042;52.136;5.584;2022-10-31T09:33:04;14.00;99.90
23723;DHT22;12042;52.136;5.584;2022-10-31T09:35:30;14.00;99.90
23723;DHT22;12042;52.136;5.584;2022-10-31T09:37:57;14.10;99.90
23723;DHT22;12042;52.136;5.584;2022-10-31T09:40:49;14.00;99.90
23723;DHT22;12042;52.136;5.584;2022-10-31T09:43:32;14.10;99.90
23723;DHT22;12042;52.136;5.584;2022-10-31T09:46:26;14.10;99.90
23723;DHT22;12042;52.136;5.584;2022-10-31T09:52:03;14.20;99.90
23723;DHT22;12042;52.136;5.584;2022-10-31T09:54:41;14.30;99.90
23723;DHT22;12042;52.136;5.584;2022-10-31T09:57:14;14.40;99.90
23723;DHT22;12042;52.136;5.584;2022-10-31T09:59:41;14.50;99.90
23723;DHT22;12042;52.136;5.584;2022-10-31T10:02:41;14.70;99.90
23723;DHT22;12042;52.136;5.584;2022-10-31T10:05:36;14.80;99.90
23723;DHT22;12042;52.136;5.584;2022-10-31T10:08:18;14.90;99.90
23723;DHT22;12042;52.136;5.584;2022-10-31T10:10:59;14.90;99.90
23723;DHT22;12042;52.136;5.584;2022-10-31T10:24:42;15.40;99.90
23723;DHT22;12042;52.136;5.584;2022-10-31T10:30:19;15.50;99.90
23723;DHT22;12042;52.136;5.584;2022-10-31T10:32:48;15.50;99.90
23723;DHT22;12042;52.136;5.584;2022-10-31T10:35:29;15.60;99.90
23723;DHT22;12042;52.136;5.584;2022-10-31T10:38:00;15.70;99.90
23723;DHT22;12042;52.136;5.584;2022-10-31T10:40:28;15.70;99.90
23723;DHT22;12042;52.136;5.584;2022-10-31T10:45:57;15.80;99.90
23723;DHT22;12042;52.136;5.584;2022-10-31T10:51:43;15.70;99.90
23723;DHT22;12042;52.136;5.584;2022-10-31T10:59:39;15.80;99.90
23723;DHT22;12042;52.136;5.584;2022-10-31T11:04:57;15.80;99.90
23723;DHT22;12042;52.136;5.584;2022-10-31T11:07:23;15.80;99.90
23723;DHT22;12042;52.136;5.584;2022-10-31T11:09:49;15.80;99.90
23723;DHT22;12042;52.136;5.584;2022-10-31T11:12:20;15.80;99.90
23723;DHT22;12042;52.136;5.584;2022-10-31T11:14:59;15.90;99.90
23723;DHT22;12042;52.136;5.584;2022-10-31T11:17:36;15.90;99.90
23723;DHT22;12042;52.136;5.584;2022-10-31T11:20:16;15.80;99.90
23723;DHT22;12042;52.136;5.584;2022-10-31T11:22:47;15.90;99.90
23723;DHT22;12042;52.136;5.584;2022-10-31T11:27:45;15.80;99.90
23723;DHT22;12042;52.136;5.584;2022-10-31T11:30:13;15.80;99.90
23723;DHT22;12042;52.136;5.584;2022-10-31T11:32:48;15.80;99.90
23723;DHT22;12042;52.136;5.584;2022-10-31T11:35:17;15.90;99.90
23723;DHT22;12042;52.136;5.584;2022-10-31T11:37:45;15.90;99.90
23723;DHT22;12042;52.136;5.584;2022-10-31T11:40:18;15.90;99.90
23723;DHT22;12042;52.136;5.584;2022-10-31T11:42:44;16.00;99.90
23723;DHT22;12042;52.136;5.584;2022-10-31T11:47:50;16.00;99.90
23723;DHT22;12042;52.136;5.584;2022-10-31T11:50:41;16.10;99.90
23723;DHT22;12042;52.136;5.584;2022-10-31T11:53:15;16.10;99.90
23723;DHT22;12042;52.136;5.584;2022-10-31T11:55:41;16.10;99.90
23723;DHT22;12042;52.136;5.584;2022-10-31T11:58:24;16.10;99.90
23723;DHT22;12042;52.136;5.584;2022-10-31T12:00:53;16.10;99.90
23723;DHT22;12042;52.136;5.584;2022-10-31T12:05:52;16.10;99.90
23723;DHT22;12042;52.136;5.584;2022-10-31T12:08:19;16.10;99.90
23723;DHT22;12042;52.136;5.584;2022-10-31T12:16:28;16.10;99.90
23723;DHT22;12042;52.136;5.584;2022-10-31T12:22:10;16.20;99.90
23723;DHT22;12042;52.136;5.584;2022-10-31T12:30:46;16.30;99.90
23723;DHT22;12042;52.136;5.584;2022-10-31T12:36:29;16.40;99.90
23723;DHT22;12042;52.136;5.584;2022-10-31T12:41:52;16.50;99.90
23723;DHT22;12042;52.136;5.584;2022-10-31T12:47:36;16.70;99.90
23723;DHT22;12042;52.136;5.584;2022-10-31T12:50:22;16.90;99.90
23723;DHT22;12042;52.136;5.584;2022-10-31T12:53:12;17.00;99.90
23723;DHT22;12042;52.136;5.584;2022-10-31T12:58:52;17.20;99.90
23723;DHT22;12042;52.136;5.584;2022-10-31T13:04:15;17.30;99.90
23723;DHT22;12042;52.136;5.584;2022-10-31T13:06:53;17.40;99.90
23723;DHT22;12042;52.136;5.584;2022-10-31T13:09:27;17.40;99.90
23723;DHT22;12042;52.136;5.584;2022-10-31T13:12:04;17.40;99.90
23723;DHT22;12042;52.136;5.584;2022-10-31T13:14:44;17.50;99.90
23723;DHT22;12042;52.136;5.584;2022-10-31T13:17:20;17.50;99.90
23723;DHT22;12042;52.136;5.584;2022-10-31T13:19:48;17.50;99.90
23723;DHT22;12042;52.136;5.584;2022-10-31T13:22:22;17.50;99.90
23723;DHT22;12042;52.136;5.584;2022-10-31T13:25:09;17.50;99.90
23723;DHT22;12042;52.136;5.584;2022-10-31T13:27:51;17.50;99.90
23723;DHT22;12042;52.136;5.584;2022-10-31T13:30:22;17.40;99.90
23723;DHT22;12042;52.136;5.584;2022-10-31T13:35:58;17.40;99.90
23723;DHT22;12042;52.136;5.584;2022-10-31T13:38:50;17.30;99.90
23723;DHT22;12042;52.136;5.584;2022-10-31T13:41:49;17.30;99.90
23723;DHT22;12042;52.136;5.584;2022-10-31T13:46:52;17.30;99.90
23723;DHT22;12042;52.136;5.584;2022-10-31T13:51:50;17.40;99.90
23723;DHT22;12042;52.136;5.584;2022-10-31T13:54:24;17.40;99.90
23723;DHT22;12042;52.136;5.584;2022-10-31T13:56:56;17.40;99.90
23723;DHT22;12042;52.136;5.584;2022-10-31T13:59:23;17.40;99.90
23723;DHT22;12042;52.136;5.584;2022-10-31T14:01:59;17.40;99.90
23723;DHT22;12042;52.136;5.584;2022-10-31T14:04:32;17.40;99.90
23723;DHT22;12042;52.136;5.584;2022-10-31T14:07:15;17.40;99.90
23723;DHT22;12042;52.136;5.584;2022-10-31T14:09:52;17.40;99.90
23723;DHT22;12042;52.136;5.584;2022-10-31T14:12:38;17.40;99.90
23723;DHT22;12042;52.136;5.584;2022-10-31T14:17:37;17.40;99.90
23723;DHT22;12042;52.136;5.584;2022-10-31T14:22:37;17.30;99.90
23723;DHT22;12042;52.136;5.584;2022-10-31T14:25:25;17.30;99.90
23723;DHT22;12042;52.136;5.584;2022-10-31T14:27:51;17.30;99.90
23723;DHT22;12042;52.136;5.584;2022-10-31T14:30:20;17.30;99.90
23723;DHT22;12042;52.136;5.584;2022-10-31T14:32:53;17.20;99.90
23723;DHT22;12042;52.136;5.584;2022-10-31T14:35:20;17.20;99.90
23723;DHT22;12042;52.136;5.584;2022-10-31T14:37:59;17.20;99.90
23723;DHT22;12042;52.136;5.584;2022-10-31T14:40:46;17.20;99.90
23723;DHT22;12042;52.136;5.584;2022-10-31T14:51:21;17.10;99.90
23723;DHT22;12042;52.136;5.584;2022-10-31T14:53:52;17.10;99.90
23723;DHT22;12042;52.136;5.584;2022-10-31T14:56:27;17.10;99.90
23723;DHT22;12042;52.136;5.584;2022-10-31T14:58:55;17.10;99.90
23723;DHT22;12042;52.136;5.584;2022-10-31T15:01:28;17.10;99.90
23723;DHT22;12042;52.136;5.584;2022-10-31T15:04:04;17.10;99.90
23723;DHT22;12042;52.136;5.584;2022-10-31T15:06:40;17.10;99.90
23723;DHT22;12042;52.136;5.584;2022-10-31T15:09:24;17.10;99.90
23723;DHT22;12042;52.136;5.584;2022-10-31T15:11:50;17.10;99.90
23723;DHT22;12042;52.136;5.584;2022-10-31T15:16:52;17.10;99.90
23723;DHT22;12042;52.136;5.584;2022-10-31T15:19:23;17.00;99.90
23723;DHT22;12042;52.136;5.584;2022-10-31T15:21:51;17.00;99.90
23723;DHT22;12042;52.136;5.584;2022-10-31T15:24:17;17.00;99.90
23723;DHT22;12042;52.136;5.584;2022-10-31T15:26:52;17.00;99.90
23723;DHT22;12042;52.136;5.584;2022-10-31T15:29:21;17.00;99.90
23723;DHT22;12042;52.136;5.584;2022-10-31T15:31:59;16.90;99.90
23723;DHT22;12042;52.136;5.584;2022-10-31T15:36:53;16.90;99.90
23723;DHT22;12042;52.136;5.584;2022-10-31T15:39:19;16.90;99.90
23723;DHT22;12042;52.136;5.584;2022-10-31T15:41:58;16.80;99.90
23723;DHT22;12042;52.136;5.584;2022-10-31T15:44:34;16.80;99.90
23723;DHT22;12042;52.136;5.584;2022-10-31T15:47:15;16.80;99.90
23723;DHT22;12042;52.136;5.584;2022-10-31T15:49:53;16.80;99.90
23723;DHT22;12042;52.136;5.584;2022-10-31T15:52:33;16.80;99.90
23723;DHT22;12042;52.136;5.584;2022-10-31T15:55:20;16.70;99.90
23723;DHT22;12042;52.136;5.584;2022-10-31T15:57:52;16.70;99.90
23723;DHT22;12042;52.136;5.584;2022-10-31T16:02:48;16.70;99.90
23723;DHT22;12042;52.136;5.584;2022-10-31T16:05:18;16.60;99.90
23723;DHT22;12042;52.136;5.584;2022-10-31T16:07:51;16.60;99.90
23723;DHT22;12042;52.136;5.584;2022-10-31T16:10:25;16.60;99.90
23723;DHT22;12042;52.136;5.584;2022-10-31T16:12:51;16.50;99.90
23723;DHT22;12042;52.136;5.584;2022-10-31T16:15:19;16.50;99.90
23723;DHT22;12042;52.136;5.584;2022-10-31T16:17:47;16.50;99.90
23723;DHT22;12042;52.136;5.584;2022-10-31T16:20:28;16.50;99.90
23723;DHT22;12042;52.136;5.584;2022-10-31T16:22:55;16.50;99.90
23723;DHT22;12042;52.136;5.584;2022-10-31T16:25:34;16.40;99.90
23723;DHT22;12042;52.136;5.584;2022-10-31T16:28:04;16.40;99.90
23723;DHT22;12042;52.136;5.584;2022-10-31T16:30:37;16.40;99.90
23723;DHT22;12042;52.136;5.584;2022-10-31T16:33:05;16.30;99.90
23723;DHT22;12042;52.136;5.584;2022-10-31T16:35:39;16.30;99.90
23723;DHT22;12042;52.136;5.584;2022-10-31T16:38:05;16.30;99.90
23723;DHT22;12042;52.136;5.584;2022-10-31T16:40:31;16.20;99.90
23723;DHT22;12042;52.136;5.584;2022-10-31T16:42:58;16.20;99.90
23723;DHT22;12042;52.136;5.584;2022-10-31T16:45:30;16.20;99.90
23723;DHT22;12042;52.136;5.584;2022-10-31T16:48:09;16.10;99.90
23723;DHT22;12042;52.136;5.584;2022-10-31T16:50:37;16.10;99.90
23723;DHT22;12042;52.136;5.584;2022-10-31T16:53:03;16.10;99.90
23723;DHT22;12042;52.136;5.584;2022-10-31T16:55:29;16.00;99.90
23723;DHT22;12042;52.136;5.584;2022-10-31T16:57:56;16.00;99.90
23723;DHT22;12042;52.136;5.584;2022-10-31T17:00:25;16.00;99.90
23723;DHT22;12042;52.136;5.584;2022-10-31T17:02:53;16.00;99.90
23723;DHT22;12042;52.136;5.584;2022-10-31T17:05:20;15.90;99.90
23723;DHT22;12042;52.136;5.584;2022-10-31T17:07:47;15.90;99.90
23723;DHT22;12042;52.136;5.584;2022-10-31T17:10:13;15.90;99.90
23723;DHT22;12042;52.136;5.584;2022-10-31T17:12:42;15.90;99.90
23723;DHT22;12042;52.136;5.584;2022-10-31T17:15:16;15.80;99.90
23723;DHT22;12042;52.136;5.584;2022-10-31T17:17:43;15.90;99.90
23723;DHT22;12042;52.136;5.584;2022-10-31T17:20:27;15.90;99.90
23723;DHT22;12042;52.136;5.584;2022-10-31T17:22:53;15.80;99.90
23723;DHT22;12042;52.136;5.584;2022-10-31T17:25:27;15.80;99.90
23723;DHT22;12042;52.136;5.584;2022-10-31T17:27:53;15.80;99.90
23723;DHT22;12042;52.136;5.584;2022-10-31T17:30:20;15.80;99.90
23723;DHT22;12042;52.136;5.584;2022-10-31T17:32:47;15.80;99.90
23723;DHT22;12042;52.136;5.584;2022-10-31T17:35:14;15.80;99.90
23723;DHT22;12042;52.136;5.584;2022-10-31T17:37:40;15.80;99.90
23723;DHT22;12042;52.136;5.584;2022-10-31T17:40:10;15.80;99.90
23723;DHT22;12042;52.136;5.584;2022-10-31T17:42:36;15.70;99.90
23723;DHT22;12042;52.136;5.584;2022-10-31T17:45:03;15.70;99.90
23723;DHT22;12042;52.136;5.584;2022-10-31T17:47:29;15.70;99.90
23723;DHT22;12042;52.136;5.584;2022-10-31T17:49:54;15.70;99.90
23723;DHT22;12042;52.136;5.584;2022-10-31T17:52:20;15.70;99.90
23723;DHT22;12042;52.136;5.584;2022-10-31T17:54:45;15.60;99.90
23723;DHT22;12042;52.136;5.584;2022-10-31T17:57:11;15.60;99.90
23723;DHT22;12042;52.136;5.584;2022-10-31T17:59:36;15.50;99.90
23723;DHT22;12042;52.136;5.584;2022-10-31T18:02:02;15.50;99.90
23723;DHT22;12042;52.136;5.584;2022-10-31T18:04:36;15.50;99.90
23723;DHT22;12042;52.136;5.584;2022-10-31T18:07:03;15.40;99.90
23723;DHT22;12042;52.136;5.584;2022-10-31T18:09:29;15.40;99.90
23723;DHT22;12042;52.136;5.584;2022-10-31T18:11:55;15.30;99.90
23723;DHT22;12042;52.136;5.584;2022-10-31T18:14:20;15.30;99.90
23723;DHT22;12042;52.136;5.584;2022-10-31T18:16:46;15.30;99.90
23723;DHT22;12042;52.136;5.584;2022-10-31T18:19:14;15.20;99.90
23723;DHT22;12042;52.136;5.584;2022-10-31T18:21:44;15.20;99.90
23723;DHT22;12042;52.136;5.584;2022-10-31T18:24:10;15.20;99.90
23723;DHT22;12042;52.136;5.584;2022-10-31T18:26:36;15.10;99.90
23723;DHT22;12042;52.136;5.584;2022-10-31T18:29:02;15.10;99.90
23723;DHT22;12042;52.136;5.584;2022-10-31T18:31:28;15.10;99.90
23723;DHT22;12042;52.136;5.584;2022-10-31T18:33:54;15.10;99.90
23723;DHT22;12042;52.136;5.584;2022-10-31T18:36:21;15.10;99.90
23723;DHT22;12042;52.136;5.584;2022-10-31T18:38:46;15.00;99.90
23723;DHT22;12042;52.136;5.584;2022-10-31T18:41:13;15.00;99.90
23723;DHT22;12042;52.136;5.584;2022-10-31T18:43:42;15.00;99.90
23723;DHT22;12042;52.136;5.584;2022-10-31T18:46:13;15.00;99.90
23723;DHT22;12042;52.136;5.584;2022-10-31T18:48:40;14.90;99.90
23723;DHT22;12042;52.136;5.584;2022-10-31T18:51:08;15.00;99.90
23723;DHT22;12042;52.136;5.584;2022-10-31T18:53:34;14.90;99.90
23723;DHT22;12042;52.136;5.584;2022-10-31T18:56:00;14.90;99.90
23723;DHT22;12042;52.136;5.584;2022-10-31T18:58:26;14.90;99.90
23723;DHT22;12042;52.136;5.584;2022-10-31T19:00:53;15.00;99.90
23723;DHT22;12042;52.136;5.584;2022-10-31T19:03:19;15.00;99.90
23723;DHT22;12042;52.136;5.584;2022-10-31T19:05:52;15.10;99.90
23723;DHT22;12042;52.136;5.584;2022-10-31T19:08:18;15.20;99.90
23723;DHT22;12042;52.136;5.584;2022-10-31T19:10:44;15.20;99.90
23723;DHT22;12042;52.136;5.584;2022-10-31T19:13:09;15.20;99.90
23723;DHT22;12042;52.136;5.584;2022-10-31T19:15:35;15.30;99.90
23723;DHT22;12042;52.136;5.584;2022-10-31T19:18:01;15.40;99.90
23723;DHT22;12042;52.136;5.584;2022-10-31T19:20:27;15.40;99.90
23723;DHT22;12042;52.136;5.584;2022-10-31T19:22:52;15.40;99.90
23723;DHT22;12042;52.136;5.584;2022-10-31T19:25:18;15.40;99.90
23723;DHT22;12042;52.136;5.584;2022-10-31T19:27:44;15.40;99.90
23723;DHT22;12042;52.136;5.584;2022-10-31T19:30:10;15.40;99.90
23723;DHT22;12042;52.136;5.584;2022-10-31T19:32:36;15.40;99.90
23723;DHT22;12042;52.136;5.584;2022-10-31T19:35:02;15.40;99.90
23723;DHT22;12042;52.136;5.584;2022-10-31T19:37:36;15.40;99.90
23723;DHT22;12042;52.136;5.584;2022-10-31T19:40:03;15.40;99.90
23723;DHT22;12042;52.136;5.584;2022-10-31T19:42:29;15.50;99.90
23723;DHT22;12042;52.136;5.584;2022-10-31T19:44:55;15.50;99.90
23723;DHT22;12042;52.136;5.584;2022-10-31T19:47:23;15.50;99.90
23723;DHT22;12042;52.136;5.584;2022-10-31T19:49:49;15.50;99.90
23723;DHT22;12042;52.136;5.584;2022-10-31T19:52:15;15.50;99.90
23723;DHT22;12042;52.136;5.584;2022-10-31T19:54:40;15.50;99.90
23723;DHT22;12042;52.136;5.584;2022-10-31T19:57:06;15.50;99.90
23723;DHT22;12042;52.136;5.584;2022-10-31T19:59:31;15.50;99.90
23723;DHT22;12042;52.136;5.584;2022-10-31T20:01:57;15.60;99.90
23723;DHT22;12042;52.136;5.584;2022-10-31T20:04:23;15.50;99.90
23723;DHT22;12042;52.136;5.584;2022-10-31T20:06:50;15.60;99.90
23723;DHT22;12042;52.136;5.584;2022-10-31T20:09:16;15.50;99.90
23723;DHT22;12042;52.136;5.584;2022-10-31T20:11:43;15.60;99.90
23723;DHT22;12042;52.136;5.584;2022-10-31T20:14:14;15.50;99.90
23723;DHT22;12042;52.136;5.584;2022-10-31T20:16:40;15.50;99.90
23723;DHT22;12042;52.136;5.584;2022-10-31T20:19:06;15.60;99.90
23723;DHT22;12042;52.136;5.584;2022-10-31T20:21:35;15.50;99.90
23723;DHT22;12042;52.136;5.584;2022-10-31T20:24:03;15.50;99.90
23723;DHT22;12042;52.136;5.584;2022-10-31T20:26:30;15.50;99.90
23723;DHT22;12042;52.136;5.584;2022-10-31T20:28:56;15.50;99.90
23723;DHT22;12042;52.136;5.584;2022-10-31T20:31:25;15.50;99.90
23723;DHT22;12042;52.136;5.584;2022-10-31T20:33:51;15.50;99.90
23723;DHT22;12042;52.136;5.584;2022-10-31T20:36:18;15.50;99.90
23723;DHT22;12042;52.136;5.584;2022-10-31T20:38:46;15.50;99.90
23723;DHT22;12042;52.136;5.584;2022-10-31T20:41:12;15.50;99.90
23723;DHT22;12042;52.136;5.584;2022-10-31T20:43:39;15.40;99.90
23723;DHT22;12042;52.136;5.584;2022-10-31T20:46:12;15.50;99.90
23723;DHT22;12042;52.136;5.584;2022-10-31T20:48:39;15.50;99.90
23723;DHT22;12042;52.136;5.584;2022-10-31T20:51:07;15.50;99.90
23723;DHT22;12042;52.136;5.584;2022-10-31T20:53:34;15.50;99.90
23723;DHT22;12042;52.136;5.584;2022-10-31T20:56:11;15.50;99.90
23723;DHT22;12042;52.136;5.584;2022-10-31T20:58:38;15.50;99.90
23723;DHT22;12042;52.136;5.584;2022-10-31T21:01:07;15.50;99.90
23723;DHT22;12042;52.136;5.584;2022-10-31T21:03:34;15.60;99.90
23723;DHT22;12042;52.136;5.584;2022-10-31T21:06:01;15.60;99.90
23723;DHT22;12042;52.136;5.584;2022-10-31T21:08:29;15.60;99.90
23723;DHT22;12042;52.136;5.584;2022-10-31T21:10:55;15.70;99.90
23723;DHT22;12042;52.136;5.584;2022-10-31T21:13:21;15.70;99.90
23723;DHT22;12042;52.136;5.584;2022-10-31T21:15:47;15.80;99.90
23723;DHT22;12042;52.136;5.584;2022-10-31T21:18:13;15.80;99.90
23723;DHT22;12042;52.136;5.584;2022-10-31T21:20:43;15.90;99.90
23723;DHT22;12042;52.136;5.584;2022-10-31T21:23:10;15.90;99.90
23723;DHT22;12042;52.136;5.584;2022-10-31T21:25:37;15.90;99.90
23723;DHT22;12042;52.136;5.584;2022-10-31T21:28:04;15.90;99.90
23723;DHT22;12042;52.136;5.584;2022-10-31T21:30:30;16.00;99.90
23723;DHT22;12042;52.136;5.584;2022-10-31T21:32:56;16.00;99.90
23723;DHT22;12042;52.136;5.584;2022-10-31T21:35:22;16.00;99.90
23723;DHT22;12042;52.136;5.584;2022-10-31T21:37:47;15.90;99.90
23723;DHT22;12042;52.136;5.584;2022-10-31T21:40:13;16.00;99.90
23723;DHT22;12042;52.136;5.584;2022-10-31T21:42:39;15.90;99.90
23723;DHT22;12042;52.136;5.584;2022-10-31T21:45:04;15.90;99.90
23723;DHT22;12042;52.136;5.584;2022-10-31T21:47:30;15.90;99.90
23723;DHT22;12042;52.136;5.584;2022-10-31T21:49:56;15.80;99.90
23723;DHT22;12042;52.136;5.584;2022-10-31T21:52:21;15.80;99.90
23723;DHT22;12042;52.136;5.584;2022-10-31T21:54:47;15.80;99.90
23723;DHT22;12042;52.136;5.584;2022-10-31T21:57:12;15.70;99.90
23723;DHT22;12042;52.136;5.584;2022-10-31T21:59:38;15.60;99.90
23723;DHT22;12042;52.136;5.584;2022-10-31T22:02:09;15.60;99.90
23723;DHT22;12042;52.136;5.584;2022-10-31T22:04:36;15.50;99.90
23723;DHT22;12042;52.136;5.584;2022-10-31T22:07:03;15.40;99.90
23723;DHT22;12042;52.136;5.584;2022-10-31T22:09:28;15.40;99.90
23723;DHT22;12042;52.136;5.584;2022-10-31T22:11:54;15.40;99.90
23723;DHT22;12042;52.136;5.584;2022-10-31T22:14:19;15.40;99.90
23723;DHT22;12042;52.136;5.584;2022-10-31T22:16:45;15.30;99.90
23723;DHT22;12042;52.136;5.584;2022-10-31T22:19:12;15.30;99.90
23723;DHT22;12042;52.136;5.584;2022-10-31T22:21:43;15.30;99.90
23723;DHT22;12042;52.136;5.584;2022-10-31T22:24:10;15.30;99.90
23723;DHT22;12042;52.136;5.584;2022-10-31T22:26:37;15.30;99.90
23723;DHT22;12042;52.136;5.584;2022-10-31T22:29:06;15.30;99.90
23723;DHT22;12042;52.136;5.584;2022-10-31T22:31:37;15.30;99.90
23723;DHT22;12042;52.136;5.584;2022-10-31T22:34:03;15.30;99.90
23723;DHT22;12042;52.136;5.584;2022-10-31T22:36:29;15.30;99.90
